sensor_id;sensor_type;location;lat;lon;timestamp;P1;durP1;ratioP1;P2;durP2;ratioP2
11100;SDS011;5604;50.722;7.078;2023-03-14T00:01:09;4.10;;;1.80;;
11100;SDS011;5604;50.722;7.078;2023-03-14T00:03:42;5.70;;;1.90;;
11100;SDS011;5604;50.722;7.078;2023-03-14T00:06:11;7.23;;;1.70;;
11100;SDS011;5604;50.722;7.078;2023-03-14T00:08:39;5.80;;;2.00;;
11100;SDS011;5604;50.722;7.078;2023-03-14T00:11:09;4.47;;;1.70;;
11100;SDS011;5604;50.722;7.078;2023-03-14T00:13:39;3.80;;;1.60;;
11100;SDS011;5604;50.722;7.078;2023-03-14T00:16:09;3.63;;;1.90;;
11100;SDS011;5604;50.722;7.078;2023-03-14T00:18:38;6.53;;;2.00;;
11100;SDS011;5604;50.722;7.078;2023-03-14T00:21:07;7.50;;;1.77;;
11100;SDS011;5604;50.722;7.078;2023-03-14T00:23:36;6.30;;;1.70;;
11100;SDS011;5604;50.722;7.078;2023-03-14T00:26:06;6.40;;;2.10;;
11100;SDS011;5604;50.722;7.078;2023-03-14T00:28:35;4.87;;;1.70;;
11100;SDS011;5604;50.722;7.078;2023-03-14T00:31:06;7.40;;;2.03;;
11100;SDS011;5604;50.722;7.078;2023-03-14T00:33:34;5.83;;;1.87;;
11100;SDS011;5604;50.722;7.078;2023-03-14T00:36:03;6.57;;;2.00;;
11100;SDS011;5604;50.722;7.078;2023-03-14T00:38:36;12.20;;;2.27;;
11100;SDS011;5604;50.722;7.078;2023-03-14T00:41:05;5.90;;;1.93;;
11100;SDS011;5604;50.722;7.078;2023-03-14T00:43:34;6.40;;;2.10;;
11100;SDS011;5604;50.722;7.078;2023-03-14T00:46:06;6.77;;;1.83;;
11100;SDS011;5604;50.722;7.078;2023-03-14T00:48:35;3.30;;;1.67;;
11100;SDS011;5604;50.722;7.078;2023-03-14T00:51:04;6.87;;;1.80;;
11100;SDS011;5604;50.722;7.078;2023-03-14T00:53:34;4.50;;;1.63;;
11100;SDS011;5604;50.722;7.078;2023-03-14T00:56:03;4.30;;;1.60;;
11100;SDS011;5604;50.722;7.078;2023-03-14T00:58:32;3.77;;;1.70;;
11100;SDS011;5604;50.722;7.078;2023-03-14T01:01:06;5.20;;;1.80;;
11100;SDS011;5604;50.722;7.078;2023-03-14T01:03:35;6.47;;;2.13;;
11100;SDS011;5604;50.722;7.078;2023-03-14T01:06:07;5.07;;;2.13;;
11100;SDS011;5604;50.722;7.078;2023-03-14T01:08:36;3.50;;;1.90;;
11100;SDS011;5604;50.722;7.078;2023-03-14T01:11:05;3.77;;;1.70;;
11100;SDS011;5604;50.722;7.078;2023-03-14T01:13:34;5.67;;;1.73;;
11100;SDS011;5604;50.722;7.078;2023-03-14T01:16:03;6.13;;;1.80;;
11100;SDS011;5604;50.722;7.078;2023-03-14T01:18:38;3.83;;;1.63;;
11100;SDS011;5604;50.722;7.078;2023-03-14T01:21:10;4.17;;;1.77;;
11100;SDS011;5604;50.722;7.078;2023-03-14T01:23:39;7.17;;;2.10;;
11100;SDS011;5604;50.722;7.078;2023-03-14T01:26:08;4.63;;;1.83;;
11100;SDS011;5604;50.722;7.078;2023-03-14T01:28:37;5.13;;;2.10;;
11100;SDS011;5604;50.722;7.078;2023-03-14T01:31:06;4.37;;;1.80;;
11100;SDS011;5604;50.722;7.078;2023-03-14T01:33:37;6.80;;;1.90;;
11100;SDS011;5604;50.722;7.078;2023-03-14T01:36:08;5.47;;;1.80;;
11100;SDS011;5604;50.722;7.078;2023-03-14T01:38:37;4.93;;;2.03;;
11100;SDS011;5604;50.722;7.078;2023-03-14T01:41:13;8.23;;;1.93;;
11100;SDS011;5604;50.722;7.078;2023-03-14T01:43:43;4.60;;;1.90;;
11100;SDS011;5604;50.722;7.078;2023-03-14T01:46:17;7.63;;;1.90;;
11100;SDS011;5604;50.722;7.078;2023-03-14T01:48:52;6.53;;;1.60;;
11100;SDS011;5604;50.722;7.078;2023-03-14T01:51:25;6.27;;;2.00;;
11100;SDS011;5604;50.722;7.078;2023-03-14T01:53:59;5.40;;;1.93;;
11100;SDS011;5604;50.722;7.078;2023-03-14T01:56:30;5.87;;;1.70;;
11100;SDS011;5604;50.722;7.078;2023-03-14T01:58:59;4.70;;;1.97;;
11100;SDS011;5604;50.722;7.078;2023-03-14T02:01:29;3.10;;;1.53;;
11100;SDS011;5604;50.722;7.078;2023-03-14T02:03:59;3.87;;;1.50;;
11100;SDS011;5604;50.722;7.078;2023-03-14T02:06:32;3.10;;;1.70;;
11100;SDS011;5604;50.722;7.078;2023-03-14T02:09:03;5.90;;;1.70;;
11100;SDS011;5604;50.722;7.078;2023-03-14T02:11:33;4.57;;;1.80;;
11100;SDS011;5604;50.722;7.078;2023-03-14T02:14:06;4.13;;;1.80;;
11100;SDS011;5604;50.722;7.078;2023-03-14T02:16:54;5.73;;;1.70;;
11100;SDS011;5604;50.722;7.078;2023-03-14T02:19:44;7.17;;;1.87;;
11100;SDS011;5604;50.722;7.078;2023-03-14T02:22:37;4.10;;;1.83;;
11100;SDS011;5604;50.722;7.078;2023-03-14T02:25:09;7.83;;;1.67;;
11100;SDS011;5604;50.722;7.078;2023-03-14T02:27:41;4.40;;;1.40;;
11100;SDS011;5604;50.722;7.078;2023-03-14T02:30:11;7.13;;;1.77;;
11100;SDS011;5604;50.722;7.078;2023-03-14T02:32:43;4.63;;;2.00;;
11100;SDS011;5604;50.722;7.078;2023-03-14T02:35:14;5.23;;;1.70;;
11100;SDS011;5604;50.722;7.078;2023-03-14T02:37:46;6.50;;;2.20;;
11100;SDS011;5604;50.722;7.078;2023-03-14T02:40:16;5.47;;;1.97;;
11100;SDS011;5604;50.722;7.078;2023-03-14T02:42:46;6.53;;;2.43;;
11100;SDS011;5604;50.722;7.078;2023-03-14T02:45:35;7.30;;;2.23;;
11100;SDS011;5604;50.722;7.078;2023-03-14T02:48:06;7.37;;;2.10;;
11100;SDS011;5604;50.722;7.078;2023-03-14T02:50:37;4.70;;;1.87;;
11100;SDS011;5604;50.722;7.078;2023-03-14T02:53:06;5.70;;;2.07;;
11100;SDS011;5604;50.722;7.078;2023-03-14T02:55:34;8.63;;;1.93;;
11100;SDS011;5604;50.722;7.078;2023-03-14T02:58:10;10.00;;;2.40;;
11100;SDS011;5604;50.722;7.078;2023-03-14T03:00:38;6.17;;;2.20;;
11100;SDS011;5604;50.722;7.078;2023-03-14T03:03:08;5.97;;;2.00;;
11100;SDS011;5604;50.722;7.078;2023-03-14T03:05:36;9.97;;;2.83;;
11100;SDS011;5604;50.722;7.078;2023-03-14T03:08:04;6.20;;;2.17;;
11100;SDS011;5604;50.722;7.078;2023-03-14T03:10:33;9.07;;;2.17;;
11100;SDS011;5604;50.722;7.078;2023-03-14T03:13:01;6.33;;;2.30;;
11100;SDS011;5604;50.722;7.078;2023-03-14T03:15:30;6.13;;;2.30;;
11100;SDS011;5604;50.722;7.078;2023-03-14T03:17:58;7.77;;;2.43;;
11100;SDS011;5604;50.722;7.078;2023-03-14T03:20:26;7.80;;;2.50;;
11100;SDS011;5604;50.722;7.078;2023-03-14T03:22:54;7.53;;;2.30;;
11100;SDS011;5604;50.722;7.078;2023-03-14T03:25:22;9.20;;;2.20;;
11100;SDS011;5604;50.722;7.078;2023-03-14T03:27:51;5.50;;;1.90;;
11100;SDS011;5604;50.722;7.078;2023-03-14T03:30:19;6.30;;;2.20;;
11100;SDS011;5604;50.722;7.078;2023-03-14T03:32:49;10.03;;;2.13;;
11100;SDS011;5604;50.722;7.078;2023-03-14T03:35:17;6.63;;;2.47;;
11100;SDS011;5604;50.722;7.078;2023-03-14T03:37:45;4.43;;;1.80;;
11100;SDS011;5604;50.722;7.078;2023-03-14T03:40:13;5.67;;;2.00;;
11100;SDS011;5604;50.722;7.078;2023-03-14T03:42:41;5.27;;;2.00;;
11100;SDS011;5604;50.722;7.078;2023-03-14T03:45:10;8.50;;;2.43;;
11100;SDS011;5604;50.722;7.078;2023-03-14T03:47:49;5.27;;;2.00;;
11100;SDS011;5604;50.722;7.078;2023-03-14T03:50:17;6.13;;;1.87;;
11100;SDS011;5604;50.722;7.078;2023-03-14T03:52:45;4.30;;;1.40;;
11100;SDS011;5604;50.722;7.078;2023-03-14T03:55:13;5.03;;;2.07;;
11100;SDS011;5604;50.722;7.078;2023-03-14T03:57:42;6.23;;;2.37;;
11100;SDS011;5604;50.722;7.078;2023-03-14T04:00:11;6.40;;;1.83;;
11100;SDS011;5604;50.722;7.078;2023-03-14T04:02:42;4.63;;;1.80;;
11100;SDS011;5604;50.722;7.078;2023-03-14T04:05:15;5.33;;;1.90;;
11100;SDS011;5604;50.722;7.078;2023-03-14T04:07:51;4.43;;;1.80;;
11100;SDS011;5604;50.722;7.078;2023-03-14T04:10:23;4.57;;;1.70;;
11100;SDS011;5604;50.722;7.078;2023-03-14T04:13:20;4.20;;;1.97;;
11100;SDS011;5604;50.722;7.078;2023-03-14T04:15:51;2.70;;;1.33;;
11100;SDS011;5604;50.722;7.078;2023-03-14T04:18:23;7.03;;;1.93;;
11100;SDS011;5604;50.722;7.078;2023-03-14T04:20:54;4.70;;;1.53;;
11100;SDS011;5604;50.722;7.078;2023-03-14T04:23:29;4.57;;;1.50;;
11100;SDS011;5604;50.722;7.078;2023-03-14T04:25:57;4.70;;;1.50;;
11100;SDS011;5604;50.722;7.078;2023-03-14T04:28:25;2.63;;;1.60;;
11100;SDS011;5604;50.722;7.078;2023-03-14T04:30:54;3.63;;;1.50;;
11100;SDS011;5604;50.722;7.078;2023-03-14T04:33:24;2.37;;;1.33;;
11100;SDS011;5604;50.722;7.078;2023-03-14T04:35:56;2.53;;;1.17;;
11100;SDS011;5604;50.722;7.078;2023-03-14T04:38:24;2.10;;;1.17;;
11100;SDS011;5604;50.722;7.078;2023-03-14T04:40:53;2.47;;;1.30;;
11100;SDS011;5604;50.722;7.078;2023-03-14T04:43:25;3.47;;;1.33;;
11100;SDS011;5604;50.722;7.078;2023-03-14T04:46:00;3.37;;;1.07;;
11100;SDS011;5604;50.722;7.078;2023-03-14T04:48:28;1.10;;;0.90;;
11100;SDS011;5604;50.722;7.078;2023-03-14T04:50:59;3.33;;;1.20;;
11100;SDS011;5604;50.722;7.078;2023-03-14T04:53:31;2.27;;;1.00;;
11100;SDS011;5604;50.722;7.078;2023-03-14T04:56:03;2.60;;;1.17;;
11100;SDS011;5604;50.722;7.078;2023-03-14T04:58:36;4.87;;;1.30;;
11100;SDS011;5604;50.722;7.078;2023-03-14T05:01:05;4.20;;;1.13;;
11100;SDS011;5604;50.722;7.078;2023-03-14T05:03:40;2.13;;;1.00;;
11100;SDS011;5604;50.722;7.078;2023-03-14T05:06:22;3.47;;;1.00;;
11100;SDS011;5604;50.722;7.078;2023-03-14T05:08:52;1.57;;;0.80;;
11100;SDS011;5604;50.722;7.078;2023-03-14T05:11:39;1.20;;;0.97;;
11100;SDS011;5604;50.722;7.078;2023-03-14T05:14:29;1.47;;;1.10;;
11100;SDS011;5604;50.722;7.078;2023-03-14T05:17:27;2.90;;;1.10;;
11100;SDS011;5604;50.722;7.078;2023-03-14T05:20:04;3.83;;;1.00;;
11100;SDS011;5604;50.722;7.078;2023-03-14T05:23:02;1.27;;;0.60;;
11100;SDS011;5604;50.722;7.078;2023-03-14T05:25:51;1.80;;;0.60;;
11100;SDS011;5604;50.722;7.078;2023-03-14T05:28:49;0.97;;;0.80;;
11100;SDS011;5604;50.722;7.078;2023-03-14T05:31:32;0.90;;;0.83;;
11100;SDS011;5604;50.722;7.078;2023-03-14T05:34:10;1.83;;;0.80;;
11100;SDS011;5604;50.722;7.078;2023-03-14T05:36:54;2.13;;;0.83;;
11100;SDS011;5604;50.722;7.078;2023-03-14T05:39:53;0.80;;;0.80;;
11100;SDS011;5604;50.722;7.078;2023-03-14T05:42:39;0.67;;;0.63;;
11100;SDS011;5604;50.722;7.078;2023-03-14T05:45:27;1.27;;;0.90;;
11100;SDS011;5604;50.722;7.078;2023-03-14T05:48:14;0.70;;;0.70;;
11100;SDS011;5604;50.722;7.078;2023-03-14T05:50:58;0.50;;;0.50;;
11100;SDS011;5604;50.722;7.078;2023-03-14T05:53:55;1.67;;;0.80;;
11100;SDS011;5604;50.722;7.078;2023-03-14T05:56:47;1.43;;;0.80;;
11100;SDS011;5604;50.722;7.078;2023-03-14T05:59:35;1.70;;;0.87;;
11100;SDS011;5604;50.722;7.078;2023-03-14T06:02:10;1.00;;;0.80;;
11100;SDS011;5604;50.722;7.078;2023-03-14T06:04:52;1.13;;;0.60;;
11100;SDS011;5604;50.722;7.078;2023-03-14T06:07:20;0.77;;;0.63;;
11100;SDS011;5604;50.722;7.078;2023-03-14T06:09:48;0.60;;;0.60;;
11100;SDS011;5604;50.722;7.078;2023-03-14T06:12:19;1.73;;;0.80;;
11100;SDS011;5604;50.722;7.078;2023-03-14T06:14:47;0.97;;;0.70;;
11100;SDS011;5604;50.722;7.078;2023-03-14T06:17:15;2.47;;;0.83;;
11100;SDS011;5604;50.722;7.078;2023-03-14T06:19:58;1.40;;;0.70;;
11100;SDS011;5604;50.722;7.078;2023-03-14T06:22:28;0.67;;;0.63;;
11100;SDS011;5604;50.722;7.078;2023-03-14T06:24:56;0.60;;;0.50;;
11100;SDS011;5604;50.722;7.078;2023-03-14T06:27:27;0.50;;;0.50;;
11100;SDS011;5604;50.722;7.078;2023-03-14T06:29:56;0.60;;;0.60;;
11100;SDS011;5604;50.722;7.078;2023-03-14T06:32:25;0.40;;;0.40;;
11100;SDS011;5604;50.722;7.078;2023-03-14T06:34:57;0.47;;;0.47;;
11100;SDS011;5604;50.722;7.078;2023-03-14T06:37:29;1.30;;;0.73;;
11100;SDS011;5604;50.722;7.078;2023-03-14T06:39:57;1.10;;;0.60;;
11100;SDS011;5604;50.722;7.078;2023-03-14T06:42:47;1.80;;;0.57;;
11100;SDS011;5604;50.722;7.078;2023-03-14T06:45:16;0.50;;;0.50;;
11100;SDS011;5604;50.722;7.078;2023-03-14T06:47:45;2.73;;;0.60;;
11100;SDS011;5604;50.722;7.078;2023-03-14T06:50:15;0.47;;;0.47;;
11100;SDS011;5604;50.722;7.078;2023-03-14T06:52:44;0.50;;;0.50;;
11100;SDS011;5604;50.722;7.078;2023-03-14T06:55:19;0.70;;;0.70;;
11100;SDS011;5604;50.722;7.078;2023-03-14T06:57:51;0.50;;;0.50;;
11100;SDS011;5604;50.722;7.078;2023-03-14T07:00:20;0.83;;;0.43;;
11100;SDS011;5604;50.722;7.078;2023-03-14T07:02:52;1.03;;;0.70;;
11100;SDS011;5604;50.722;7.078;2023-03-14T07:05:26;0.40;;;0.40;;
11100;SDS011;5604;50.722;7.078;2023-03-14T07:07:54;0.60;;;0.60;;
11100;SDS011;5604;50.722;7.078;2023-03-14T07:10:23;0.50;;;0.50;;
11100;SDS011;5604;50.722;7.078;2023-03-14T07:12:52;0.47;;;0.47;;
11100;SDS011;5604;50.722;7.078;2023-03-14T07:15:26;0.40;;;0.40;;
11100;SDS011;5604;50.722;7.078;2023-03-14T07:18:06;0.83;;;0.63;;
11100;SDS011;5604;50.722;7.078;2023-03-14T07:20:34;0.50;;;0.50;;
11100;SDS011;5604;50.722;7.078;2023-03-14T07:23:04;1.50;;;0.50;;
11100;SDS011;5604;50.722;7.078;2023-03-14T07:25:43;0.63;;;0.40;;
11100;SDS011;5604;50.722;7.078;2023-03-14T07:28:14;1.23;;;0.50;;
11100;SDS011;5604;50.722;7.078;2023-03-14T07:30:45;0.80;;;0.50;;
11100;SDS011;5604;50.722;7.078;2023-03-14T07:33:24;0.37;;;0.37;;
11100;SDS011;5604;50.722;7.078;2023-03-14T07:35:52;0.37;;;0.37;;
11100;SDS011;5604;50.722;7.078;2023-03-14T07:38:21;0.60;;;0.60;;
11100;SDS011;5604;50.722;7.078;2023-03-14T07:41:06;0.37;;;0.37;;
11100;SDS011;5604;50.722;7.078;2023-03-14T07:43:41;0.60;;;0.60;;
11100;SDS011;5604;50.722;7.078;2023-03-14T07:46:10;1.60;;;0.50;;
11100;SDS011;5604;50.722;7.078;2023-03-14T07:48:38;0.60;;;0.60;;
11100;SDS011;5604;50.722;7.078;2023-03-14T07:51:07;0.50;;;0.50;;
11100;SDS011;5604;50.722;7.078;2023-03-14T07:53:35;0.93;;;0.50;;
11100;SDS011;5604;50.722;7.078;2023-03-14T07:56:04;0.50;;;0.40;;
11100;SDS011;5604;50.722;7.078;2023-03-14T07:58:32;0.63;;;0.60;;
11100;SDS011;5604;50.722;7.078;2023-03-14T08:01:02;0.40;;;0.40;;
11100;SDS011;5604;50.722;7.078;2023-03-14T08:03:31;0.43;;;0.30;;
11100;SDS011;5604;50.722;7.078;2023-03-14T08:05:59;0.30;;;0.30;;
11100;SDS011;5604;50.722;7.078;2023-03-14T08:08:27;0.40;;;0.40;;
11100;SDS011;5604;50.722;7.078;2023-03-14T08:10:56;0.47;;;0.33;;
11100;SDS011;5604;50.722;7.078;2023-03-14T08:13:24;0.30;;;0.30;;
11100;SDS011;5604;50.722;7.078;2023-03-14T08:15:52;0.30;;;0.30;;
11100;SDS011;5604;50.722;7.078;2023-03-14T08:18:22;0.30;;;0.30;;
11100;SDS011;5604;50.722;7.078;2023-03-14T08:20:50;1.17;;;0.60;;
11100;SDS011;5604;50.722;7.078;2023-03-14T08:23:18;0.30;;;0.30;;
11100;SDS011;5604;50.722;7.078;2023-03-14T08:25:48;0.43;;;0.43;;
11100;SDS011;5604;50.722;7.078;2023-03-14T08:28:16;0.40;;;0.40;;
11100;SDS011;5604;50.722;7.078;2023-03-14T08:30:45;0.40;;;0.40;;
11100;SDS011;5604;50.722;7.078;2023-03-14T08:33:14;0.50;;;0.50;;
11100;SDS011;5604;50.722;7.078;2023-03-14T08:35:43;0.47;;;0.40;;
11100;SDS011;5604;50.722;7.078;2023-03-14T08:38:11;0.30;;;0.30;;
11100;SDS011;5604;50.722;7.078;2023-03-14T08:40:40;0.20;;;0.20;;
11100;SDS011;5604;50.722;7.078;2023-03-14T08:43:08;0.33;;;0.33;;
11100;SDS011;5604;50.722;7.078;2023-03-14T08:45:36;0.30;;;0.30;;
11100;SDS011;5604;50.722;7.078;2023-03-14T08:48:05;0.40;;;0.40;;
11100;SDS011;5604;50.722;7.078;2023-03-14T08:50:33;0.30;;;0.30;;
11100;SDS011;5604;50.722;7.078;2023-03-14T08:53:03;0.47;;;0.30;;
11100;SDS011;5604;50.722;7.078;2023-03-14T08:55:31;0.40;;;0.40;;
11100;SDS011;5604;50.722;7.078;2023-03-14T08:57:59;0.30;;;0.30;;
11100;SDS011;5604;50.722;7.078;2023-03-14T09:00:27;0.30;;;0.30;;
11100;SDS011;5604;50.722;7.078;2023-03-14T09:02:56;0.27;;;0.27;;
11100;SDS011;5604;50.722;7.078;2023-03-14T09:05:24;0.40;;;0.40;;
11100;SDS011;5604;50.722;7.078;2023-03-14T09:07:52;0.40;;;0.40;;
11100;SDS011;5604;50.722;7.078;2023-03-14T09:10:22;0.30;;;0.30;;
11100;SDS011;5604;50.722;7.078;2023-03-14T09:12:52;0.97;;;0.97;;
11100;SDS011;5604;50.722;7.078;2023-03-14T09:15:20;0.37;;;0.37;;
11100;SDS011;5604;50.722;7.078;2023-03-14T09:17:49;0.30;;;0.30;;
11100;SDS011;5604;50.722;7.078;2023-03-14T09:20:17;1.50;;;0.40;;
11100;SDS011;5604;50.722;7.078;2023-03-14T09:22:46;0.50;;;0.50;;
11100;SDS011;5604;50.722;7.078;2023-03-14T09:25:14;0.80;;;0.50;;
11100;SDS011;5604;50.722;7.078;2023-03-14T09:27:44;1.53;;;0.63;;
11100;SDS011;5604;50.722;7.078;2023-03-14T09:30:12;0.40;;;0.40;;
11100;SDS011;5604;50.722;7.078;2023-03-14T09:32:40;0.40;;;0.40;;
11100;SDS011;5604;50.722;7.078;2023-03-14T09:35:09;0.60;;;0.60;;
11100;SDS011;5604;50.722;7.078;2023-03-14T09:37:37;0.37;;;0.37;;
11100;SDS011;5604;50.722;7.078;2023-03-14T09:40:06;0.40;;;0.40;;
11100;SDS011;5604;50.722;7.078;2023-03-14T09:42:38;1.53;;;0.50;;
11100;SDS011;5604;50.722;7.078;2023-03-14T09:45:11;0.77;;;0.60;;
11100;SDS011;5604;50.722;7.078;2023-03-14T09:47:41;0.57;;;0.57;;
11100;SDS011;5604;50.722;7.078;2023-03-14T09:50:30;0.40;;;0.40;;
11100;SDS011;5604;50.722;7.078;2023-03-14T09:53:01;0.40;;;0.40;;
11100;SDS011;5604;50.722;7.078;2023-03-14T09:55:31;0.60;;;0.60;;
11100;SDS011;5604;50.722;7.078;2023-03-14T09:58:02;0.83;;;0.70;;
11100;SDS011;5604;50.722;7.078;2023-03-14T10:00:38;0.77;;;0.60;;
11100;SDS011;5604;50.722;7.078;2023-03-14T10:05:54;1.90;;;1.00;;
11100;SDS011;5604;50.722;7.078;2023-03-14T10:08:23;1.27;;;0.90;;
11100;SDS011;5604;50.722;7.078;2023-03-14T10:10:51;0.90;;;0.90;;
11100;SDS011;5604;50.722;7.078;2023-03-14T10:13:20;0.80;;;0.67;;
11100;SDS011;5604;50.722;7.078;2023-03-14T10:15:53;0.80;;;0.80;;
11100;SDS011;5604;50.722;7.078;2023-03-14T10:18:22;2.00;;;0.80;;
11100;SDS011;5604;50.722;7.078;2023-03-14T10:21:05;1.27;;;1.03;;
11100;SDS011;5604;50.722;7.078;2023-03-14T10:23:34;0.77;;;0.77;;
11100;SDS011;5604;50.722;7.078;2023-03-14T10:26:05;0.90;;;0.90;;
11100;SDS011;5604;50.722;7.078;2023-03-14T10:28:37;0.93;;;0.93;;
11100;SDS011;5604;50.722;7.078;2023-03-14T10:31:09;0.97;;;0.87;;
11100;SDS011;5604;50.722;7.078;2023-03-14T10:33:37;1.37;;;1.00;;
11100;SDS011;5604;50.722;7.078;2023-03-14T10:36:06;0.87;;;0.87;;
11100;SDS011;5604;50.722;7.078;2023-03-14T10:38:44;0.90;;;0.90;;
11100;SDS011;5604;50.722;7.078;2023-03-14T10:41:16;0.80;;;0.80;;
11100;SDS011;5604;50.722;7.078;2023-03-14T10:43:45;0.80;;;0.80;;
11100;SDS011;5604;50.722;7.078;2023-03-14T10:46:19;1.93;;;1.00;;
11100;SDS011;5604;50.722;7.078;2023-03-14T10:49:06;2.10;;;0.70;;
11100;SDS011;5604;50.722;7.078;2023-03-14T10:51:35;1.00;;;0.90;;
11100;SDS011;5604;50.722;7.078;2023-03-14T10:54:09;0.77;;;0.77;;
11100;SDS011;5604;50.722;7.078;2023-03-14T10:56:40;1.90;;;0.87;;
11100;SDS011;5604;50.722;7.078;2023-03-14T10:59:11;0.80;;;0.80;;
11100;SDS011;5604;50.722;7.078;2023-03-14T11:01:44;2.73;;;1.00;;
11100;SDS011;5604;50.722;7.078;2023-03-14T11:04:20;0.80;;;0.80;;
11100;SDS011;5604;50.722;7.078;2023-03-14T11:06:55;0.83;;;0.83;;
11100;SDS011;5604;50.722;7.078;2023-03-14T11:09:28;0.90;;;0.90;;
11100;SDS011;5604;50.722;7.078;2023-03-14T11:12:02;1.10;;;1.00;;
11100;SDS011;5604;50.722;7.078;2023-03-14T11:14:36;1.17;;;1.10;;
11100;SDS011;5604;50.722;7.078;2023-03-14T11:17:11;1.53;;;1.20;;
11100;SDS011;5604;50.722;7.078;2023-03-14T11:19:47;1.23;;;1.10;;
11100;SDS011;5604;50.722;7.078;2023-03-14T11:22:23;1.10;;;1.10;;
11100;SDS011;5604;50.722;7.078;2023-03-14T11:25:04;1.03;;;1.03;;
11100;SDS011;5604;50.722;7.078;2023-03-14T11:27:39;2.47;;;1.30;;
11100;SDS011;5604;50.722;7.078;2023-03-14T11:30:18;1.13;;;1.10;;
11100;SDS011;5604;50.722;7.078;2023-03-14T11:32:53;1.47;;;1.20;;
11100;SDS011;5604;50.722;7.078;2023-03-14T11:35:25;1.27;;;1.27;;
11100;SDS011;5604;50.722;7.078;2023-03-14T11:38:00;1.23;;;1.13;;
11100;SDS011;5604;50.722;7.078;2023-03-14T11:40:34;1.80;;;1.20;;
11100;SDS011;5604;50.722;7.078;2023-03-14T11:43:09;1.07;;;1.03;;
11100;SDS011;5604;50.722;7.078;2023-03-14T11:45:40;3.60;;;2.20;;
11100;SDS011;5604;50.722;7.078;2023-03-14T11:48:18;2.63;;;1.10;;
11100;SDS011;5604;50.722;7.078;2023-03-14T11:50:51;2.00;;;1.20;;
11100;SDS011;5604;50.722;7.078;2023-03-14T11:53:22;1.40;;;1.17;;
11100;SDS011;5604;50.722;7.078;2023-03-14T11:55:58;1.23;;;1.10;;
11100;SDS011;5604;50.722;7.078;2023-03-14T11:58:29;1.60;;;1.10;;
11100;SDS011;5604;50.722;7.078;2023-03-14T12:01:06;1.73;;;1.10;;
11100;SDS011;5604;50.722;7.078;2023-03-14T12:03:41;1.93;;;1.40;;
11100;SDS011;5604;50.722;7.078;2023-03-14T12:06:15;1.50;;;1.30;;
11100;SDS011;5604;50.722;7.078;2023-03-14T12:08:47;2.23;;;1.20;;
11100;SDS011;5604;50.722;7.078;2023-03-14T12:11:22;3.40;;;1.40;;
11100;SDS011;5604;50.722;7.078;2023-03-14T12:13:57;2.97;;;1.43;;
11100;SDS011;5604;50.722;7.078;2023-03-14T12:16:31;0.97;;;0.80;;
11100;SDS011;5604;50.722;7.078;2023-03-14T12:22:23;1.77;;;1.20;;
11100;SDS011;5604;50.722;7.078;2023-03-14T12:24:56;0.50;;;0.50;;
11100;SDS011;5604;50.722;7.078;2023-03-14T12:27:50;0.80;;;0.73;;
11100;SDS011;5604;50.722;7.078;2023-03-14T12:30:32;0.87;;;0.73;;
11100;SDS011;5604;50.722;7.078;2023-03-14T12:35:51;0.80;;;0.80;;
11100;SDS011;5604;50.722;7.078;2023-03-14T12:38:23;1.00;;;0.90;;
11100;SDS011;5604;50.722;7.078;2023-03-14T12:40:58;1.10;;;1.00;;
11100;SDS011;5604;50.722;7.078;2023-03-14T12:43:29;1.00;;;1.00;;
11100;SDS011;5604;50.722;7.078;2023-03-14T12:46:07;1.13;;;0.97;;
11100;SDS011;5604;50.722;7.078;2023-03-14T12:48:38;1.37;;;1.10;;
11100;SDS011;5604;50.722;7.078;2023-03-14T12:51:13;1.53;;;1.43;;
11100;SDS011;5604;50.722;7.078;2023-03-14T12:53:52;2.90;;;1.40;;
11100;SDS011;5604;50.722;7.078;2023-03-14T12:59:50;2.23;;;1.17;;
11100;SDS011;5604;50.722;7.078;2023-03-14T13:02:24;1.63;;;1.50;;
11100;SDS011;5604;50.722;7.078;2023-03-14T13:05:00;2.97;;;1.87;;
11100;SDS011;5604;50.722;7.078;2023-03-14T13:08:02;2.10;;;1.40;;
11100;SDS011;5604;50.722;7.078;2023-03-14T13:10:39;2.13;;;1.60;;
11100;SDS011;5604;50.722;7.078;2023-03-14T13:13:15;1.60;;;1.50;;
11100;SDS011;5604;50.722;7.078;2023-03-14T13:15:48;3.30;;;1.53;;
11100;SDS011;5604;50.722;7.078;2023-03-14T13:18:23;2.13;;;1.33;;
11100;SDS011;5604;50.722;7.078;2023-03-14T13:20:55;2.27;;;1.57;;
11100;SDS011;5604;50.722;7.078;2023-03-14T13:23:28;4.47;;;1.73;;
11100;SDS011;5604;50.722;7.078;2023-03-14T13:25:58;2.17;;;1.30;;
11100;SDS011;5604;50.722;7.078;2023-03-14T13:28:26;2.13;;;1.60;;
11100;SDS011;5604;50.722;7.078;2023-03-14T13:30:56;3.30;;;2.40;;
11100;SDS011;5604;50.722;7.078;2023-03-14T13:33:26;2.43;;;1.70;;
11100;SDS011;5604;50.722;7.078;2023-03-14T13:35:55;5.07;;;1.67;;
11100;SDS011;5604;50.722;7.078;2023-03-14T13:38:25;2.30;;;1.50;;
11100;SDS011;5604;50.722;7.078;2023-03-14T13:40:56;2.90;;;1.77;;
11100;SDS011;5604;50.722;7.078;2023-03-14T13:43:27;4.07;;;1.53;;
11100;SDS011;5604;50.722;7.078;2023-03-14T13:46:01;2.57;;;1.80;;
11100;SDS011;5604;50.722;7.078;2023-03-14T13:48:31;2.27;;;1.80;;
11100;SDS011;5604;50.722;7.078;2023-03-14T13:51:01;3.60;;;1.97;;
11100;SDS011;5604;50.722;7.078;2023-03-14T13:53:31;3.37;;;1.57;;
11100;SDS011;5604;50.722;7.078;2023-03-14T13:56:02;2.43;;;2.00;;
11100;SDS011;5604;50.722;7.078;2023-03-14T13:58:31;3.50;;;1.90;;
11100;SDS011;5604;50.722;7.078;2023-03-14T14:01:03;6.43;;;1.80;;
11100;SDS011;5604;50.722;7.078;2023-03-14T14:03:33;3.23;;;1.87;;
11100;SDS011;5604;50.722;7.078;2023-03-14T14:06:05;4.30;;;1.80;;
11100;SDS011;5604;50.722;7.078;2023-03-14T14:08:39;3.30;;;2.20;;
11100;SDS011;5604;50.722;7.078;2023-03-14T14:11:09;1.73;;;1.50;;
11100;SDS011;5604;50.722;7.078;2023-03-14T14:13:41;7.03;;;2.40;;
11100;SDS011;5604;50.722;7.078;2023-03-14T14:16:09;3.83;;;2.40;;
11100;SDS011;5604;50.722;7.078;2023-03-14T14:18:39;7.63;;;2.93;;
11100;SDS011;5604;50.722;7.078;2023-03-14T14:21:08;3.43;;;2.10;;
11100;SDS011;5604;50.722;7.078;2023-03-14T14:23:36;5.63;;;2.20;;
11100;SDS011;5604;50.722;7.078;2023-03-14T14:26:05;8.03;;;2.20;;
11100;SDS011;5604;50.722;7.078;2023-03-14T14:28:36;5.93;;;2.00;;
11100;SDS011;5604;50.722;7.078;2023-03-14T14:31:06;5.07;;;2.17;;
11100;SDS011;5604;50.722;7.078;2023-03-14T14:33:46;9.33;;;2.20;;
11100;SDS011;5604;50.722;7.078;2023-03-14T14:36:30;8.23;;;2.40;;
11100;SDS011;5604;50.722;7.078;2023-03-14T14:39:00;9.87;;;2.97;;
11100;SDS011;5604;50.722;7.078;2023-03-14T14:41:31;9.43;;;2.40;;
11100;SDS011;5604;50.722;7.078;2023-03-14T14:44:02;7.37;;;2.43;;
11100;SDS011;5604;50.722;7.078;2023-03-14T14:46:33;9.77;;;2.87;;
11100;SDS011;5604;50.722;7.078;2023-03-14T14:49:02;12.07;;;2.93;;
11100;SDS011;5604;50.722;7.078;2023-03-14T14:51:34;12.30;;;2.77;;
11100;SDS011;5604;50.722;7.078;2023-03-14T14:54:10;14.03;;;2.97;;
11100;SDS011;5604;50.722;7.078;2023-03-14T14:56:40;7.67;;;2.67;;
11100;SDS011;5604;50.722;7.078;2023-03-14T14:59:28;12.33;;;4.23;;
11100;SDS011;5604;50.722;7.078;2023-03-14T15:01:57;12.30;;;3.20;;
11100;SDS011;5604;50.722;7.078;2023-03-14T15:04:26;11.17;;;3.00;;
11100;SDS011;5604;50.722;7.078;2023-03-14T15:06:55;11.03;;;3.33;;
11100;SDS011;5604;50.722;7.078;2023-03-14T15:09:23;9.27;;;3.00;;
11100;SDS011;5604;50.722;7.078;2023-03-14T15:11:51;14.73;;;3.13;;
11100;SDS011;5604;50.722;7.078;2023-03-14T15:14:19;8.00;;;2.87;;
11100;SDS011;5604;50.722;7.078;2023-03-14T15:16:48;8.63;;;2.90;;
11100;SDS011;5604;50.722;7.078;2023-03-14T15:19:19;6.50;;;2.60;;
11100;SDS011;5604;50.722;7.078;2023-03-14T15:21:51;9.23;;;3.23;;
11100;SDS011;5604;50.722;7.078;2023-03-14T15:24:19;11.00;;;2.97;;
11100;SDS011;5604;50.722;7.078;2023-03-14T15:26:48;5.20;;;2.10;;
11100;SDS011;5604;50.722;7.078;2023-03-14T15:29:16;11.17;;;2.40;;
11100;SDS011;5604;50.722;7.078;2023-03-14T15:31:44;9.10;;;2.43;;
11100;SDS011;5604;50.722;7.078;2023-03-14T15:34:13;11.60;;;3.00;;
11100;SDS011;5604;50.722;7.078;2023-03-14T15:36:43;7.50;;;2.67;;
11100;SDS011;5604;50.722;7.078;2023-03-14T15:39:11;4.17;;;2.10;;
11100;SDS011;5604;50.722;7.078;2023-03-14T15:41:39;4.73;;;2.10;;
11100;SDS011;5604;50.722;7.078;2023-03-14T15:44:07;4.20;;;2.20;;